createdAt,value
2022-09-18T00:01:26.184Z,5.00
2022-09-18T00:03:55.506Z,6.43
2022-09-18T00:06:26.041Z,7.30
2022-09-18T00:08:55.042Z,4.35
2022-09-18T00:11:25.397Z,5.78
2022-09-18T00:13:53.706Z,6.20
2022-09-18T00:16:25.147Z,8.10
2022-09-18T00:18:52.969Z,5.97
2022-09-18T00:21:24.410Z,5.47
2022-09-18T00:23:54.056Z,4.53
2022-09-18T00:26:21.852Z,4.90
2022-09-18T00:28:49.438Z,7.47
2022-09-18T00:31:19.248Z,6.13
2022-09-18T00:33:48.520Z,7.25
2022-09-18T00:36:18.067Z,5.38
2022-09-18T00:38:46.442Z,6.00
2022-09-18T00:41:16.566Z,5.35
2022-09-18T00:43:44.509Z,8.65
2022-09-18T00:46:22.840Z,5.90
2022-09-18T00:49:00.122Z,4.47
2022-09-18T00:51:28.310Z,5.32
2022-09-18T00:54:02.574Z,5.65
2022-09-18T00:56:30.621Z,3.50
2022-09-18T00:58:58.236Z,3.97
2022-09-18T01:01:25.833Z,4.25
2022-09-18T01:03:54.939Z,2.70
2022-09-18T01:06:31.367Z,3.85
2022-09-18T01:09:06.265Z,5.20
2022-09-18T01:11:38.401Z,3.65
2022-09-18T01:14:15.228Z,4.53
2022-09-18T01:16:48.493Z,3.13
2022-09-18T01:19:31.281Z,4.30
2022-09-18T01:22:08.904Z,4.50
2022-09-18T01:24:47.470Z,4.45
2022-09-18T01:27:21.873Z,3.70
2022-09-18T01:29:56.926Z,4.53
2022-09-18T01:32:27.814Z,3.17
2022-09-18T01:35:09.379Z,4.20
2022-09-18T01:37:42.155Z,5.22
2022-09-18T01:40:13.789Z,4.00
2022-09-18T01:42:42.798Z,2.83
2022-09-18T01:45:14.156Z,4.37
2022-09-18T01:47:46.496Z,5.45
2022-09-18T01:50:16.113Z,4.68
2022-09-18T01:52:46.741Z,3.75
2022-09-18T01:55:17.563Z,5.18
2022-09-18T01:57:49.595Z,4.47
2022-09-18T02:00:18.922Z,4.93
2022-09-18T02:02:52.799Z,4.80
2022-09-18T02:05:24.556Z,5.93
2022-09-18T02:07:59.284Z,4.13
2022-09-18T02:10:28.139Z,4.40
2022-09-18T02:12:57.480Z,5.60
2022-09-18T02:15:28.137Z,3.83
2022-09-18T02:17:58.570Z,4.82
2022-09-18T02:20:27.994Z,4.47
2022-09-18T02:22:58.224Z,3.63
2022-09-18T02:25:29.515Z,6.07
2022-09-18T02:27:57.504Z,4.05
2022-09-18T02:30:26.985Z,4.57
2022-09-18T02:32:55.698Z,5.15
2022-09-18T02:35:24.746Z,2.90
2022-09-18T02:37:58.108Z,5.25
2022-09-18T02:40:32.168Z,5.00
2022-09-18T02:43:13.791Z,3.37
2022-09-18T02:45:46.051Z,3.70
2022-09-18T02:48:22.535Z,3.00
2022-09-18T02:50:59.255Z,4.88
2022-09-18T02:53:30.324Z,3.53
2022-09-18T02:56:02.497Z,2.97
2022-09-18T02:58:34.135Z,4.95
2022-09-18T03:01:04.814Z,5.57
2022-09-18T03:03:34.434Z,4.60
2022-09-18T03:06:02.035Z,5.72
2022-09-18T03:08:29.649Z,5.53
2022-09-18T03:10:57.546Z,6.68
2022-09-18T03:13:25.132Z,4.35
2022-09-18T03:15:52.786Z,7.07
2022-09-18T03:18:21.904Z,6.00
2022-09-18T03:20:49.706Z,8.10
2022-09-18T03:23:17.424Z,4.90
2022-09-18T03:25:45.091Z,6.45
2022-09-18T03:28:14.310Z,6.67
2022-09-18T03:30:41.934Z,5.43
2022-09-18T03:33:09.616Z,4.70
2022-09-18T03:35:38.609Z,8.32
2022-09-18T03:38:06.847Z,7.13
2022-09-18T03:40:34.485Z,6.60
2022-09-18T03:43:02.172Z,6.25
2022-09-18T03:45:29.734Z,8.20
2022-09-18T03:47:57.706Z,6.85
2022-09-18T03:50:25.315Z,7.03
2022-09-18T03:52:54.268Z,6.35
2022-09-18T03:55:22.581Z,5.40
2022-09-18T03:57:50.486Z,5.82
2022-09-18T04:00:18.315Z,6.18
2022-09-18T04:02:46.108Z,7.07
2022-09-18T04:05:15.363Z,4.63
2022-09-18T04:07:42.997Z,7.83
2022-09-18T04:10:12.022Z,4.35
2022-09-18T04:12:39.690Z,5.97
2022-09-18T04:15:08.448Z,5.28
2022-09-18T04:17:36.057Z,5.55
2022-09-18T04:20:03.965Z,6.15
2022-09-18T04:22:31.559Z,4.60
2022-09-18T04:24:59.205Z,5.15
2022-09-18T04:27:28.436Z,4.22
2022-09-18T04:29:56.069Z,6.63
2022-09-18T04:32:23.672Z,4.88
2022-09-18T04:34:51.275Z,4.85
2022-09-18T04:37:18.945Z,4.97
2022-09-18T04:39:46.979Z,4.57
2022-09-18T04:42:14.578Z,5.20
2022-09-18T04:44:43.524Z,4.93
2022-09-18T04:47:11.214Z,5.80
2022-09-18T04:49:38.795Z,2.60
2022-09-18T04:52:06.387Z,3.95
2022-09-18T04:54:34.168Z,2.92
2022-09-18T04:57:01.750Z,4.70
2022-09-18T04:59:29.322Z,4.28
2022-09-18T05:01:58.378Z,5.40
2022-09-18T05:04:25.954Z,4.25
2022-09-18T05:06:53.561Z,4.80
2022-09-18T05:09:21.176Z,5.05
2022-09-18T05:11:48.803Z,4.63
2022-09-18T05:14:16.411Z,3.20
2022-09-18T05:16:44.002Z,5.50
2022-09-18T05:19:12.938Z,3.80
2022-09-18T05:21:40.552Z,4.38
2022-09-18T05:24:08.311Z,4.40
2022-09-18T05:26:35.879Z,6.40
2022-09-18T05:29:03.493Z,6.30
2022-09-18T05:31:31.204Z,5.05
2022-09-18T05:33:58.879Z,4.13
2022-09-18T05:36:27.843Z,5.68
2022-09-18T05:38:55.431Z,4.07
2022-09-18T05:41:23.036Z,4.85
2022-09-18T05:43:50.703Z,4.63
2022-09-18T05:46:18.423Z,6.70
2022-09-18T05:48:46.538Z,3.35
2022-09-18T05:51:14.500Z,8.73
2022-09-18T05:53:48.359Z,5.38
2022-09-18T05:56:16.969Z,6.57
2022-09-18T05:58:44.759Z,6.07
2022-09-18T06:01:14.544Z,7.47
2022-09-18T06:03:42.586Z,4.20
2022-09-18T06:06:10.306Z,5.25
2022-09-18T06:08:38.205Z,4.28
2022-09-18T06:11:07.468Z,4.40
2022-09-18T06:13:35.446Z,5.18
2022-09-18T06:16:03.827Z,5.05
2022-09-18T06:18:32.375Z,5.45
2022-09-18T06:21:00.465Z,6.22
2022-09-18T06:23:29.107Z,6.53
2022-09-18T06:26:00.885Z,3.75
2022-09-18T06:28:31.209Z,5.72
2022-09-18T06:30:59.653Z,5.63
2022-09-18T06:33:29.914Z,5.13
2022-09-18T06:35:58.071Z,5.32
2022-09-18T06:38:26.100Z,6.28
2022-09-18T06:40:56.762Z,5.07
2022-09-18T06:43:26.640Z,6.07
2022-09-18T06:45:56.977Z,4.70
2022-09-18T06:48:25.464Z,5.45
2022-09-18T06:50:54.574Z,5.32
2022-09-18T06:53:22.903Z,5.03
2022-09-18T06:55:51.026Z,4.13
2022-09-18T06:58:21.543Z,4.95
2022-09-18T07:00:51.405Z,6.70
2022-09-18T07:03:20.536Z,5.80
2022-09-18T07:05:48.216Z,5.47
2022-09-18T07:08:16.106Z,5.85
2022-09-18T07:10:45.183Z,5.07
2022-09-18T07:13:13.199Z,7.13
2022-09-18T07:15:43.006Z,4.68
2022-09-18T07:18:11.198Z,4.25
2022-09-18T07:20:40.332Z,5.55
2022-09-18T07:23:08.015Z,6.15
2022-09-18T07:25:36.106Z,5.90
2022-09-18T07:28:04.890Z,4.88
2022-09-18T07:30:34.512Z,5.40
2022-09-18T07:33:04.566Z,6.07
2022-09-18T07:35:34.458Z,5.80
2022-09-18T07:38:07.488Z,4.95
2022-09-18T07:40:35.678Z,5.10
2022-09-18T07:43:04.978Z,4.13
2022-09-18T07:45:32.687Z,5.47
2022-09-18T07:48:02.683Z,6.43
2022-09-18T07:50:30.297Z,5.10
2022-09-18T07:53:02.199Z,6.47
2022-09-18T07:55:31.360Z,6.15
2022-09-18T07:58:00.924Z,6.03
2022-09-18T08:00:31.412Z,4.38
2022-09-18T08:03:03.431Z,3.20
2022-09-18T08:05:32.381Z,3.45
2022-09-18T08:08:06.153Z,2.38
2022-09-18T08:10:40.191Z,4.35
2022-09-18T08:13:08.329Z,3.23
2022-09-18T08:15:40.914Z,2.97
2022-09-18T08:18:10.953Z,4.00
2022-09-18T08:20:38.900Z,4.78
2022-09-18T08:23:08.797Z,4.63
2022-09-18T08:25:38.313Z,4.55
2022-09-18T08:28:07.664Z,4.18
2022-09-18T08:30:36.165Z,3.90
2022-09-18T08:33:05.673Z,5.40
2022-09-18T08:35:33.544Z,4.00
2022-09-18T08:38:02.168Z,3.33
2022-09-18T08:40:43.764Z,3.50
2022-09-18T08:43:17.144Z,2.85
2022-09-18T08:45:52.838Z,5.40
2022-09-18T08:48:22.660Z,2.88
2022-09-18T08:50:56.137Z,3.80
2022-09-18T08:53:27.288Z,3.53
2022-09-18T08:55:56.808Z,4.47
2022-09-18T08:58:27.058Z,3.50
2022-09-18T09:00:58.015Z,4.07
2022-09-18T09:03:30.804Z,5.55
2022-09-18T09:06:00.355Z,2.60
2022-09-18T09:08:48.035Z,3.30
2022-09-18T09:11:20.557Z,2.53
2022-09-18T09:14:02.563Z,3.20
2022-09-18T09:16:37.703Z,3.78
2022-09-18T09:19:18.604Z,5.07
2022-09-18T09:21:56.441Z,3.65
2022-09-18T09:24:33.449Z,4.00
2022-09-18T09:27:07.078Z,2.40
2022-09-18T09:29:37.211Z,3.20
2022-09-18T09:32:08.682Z,4.18
2022-09-18T09:34:40.763Z,5.05
2022-09-18T09:37:18.016Z,3.10
2022-09-18T09:39:47.250Z,3.05
2022-09-18T09:42:18.963Z,3.30
2022-09-18T09:44:51.111Z,2.63
2022-09-18T09:47:24.919Z,3.83
2022-09-18T09:50:01.554Z,4.10
2022-09-18T09:52:30.180Z,2.97
2022-09-18T09:55:00.789Z,4.40
2022-09-18T09:57:35.732Z,1.92
2022-09-18T10:00:09.407Z,2.20
2022-09-18T10:03:05.265Z,4.55
2022-09-18T10:05:36.332Z,4.25
2022-09-18T10:08:07.469Z,4.40
2022-09-18T10:10:41.271Z,3.10
2022-09-18T10:13:15.457Z,3.60
2022-09-18T10:15:44.888Z,2.40
2022-09-18T10:18:16.599Z,3.30
2022-09-18T10:20:45.393Z,2.20
2022-09-18T10:23:16.489Z,3.53
2022-09-18T10:25:46.377Z,2.90
2022-09-18T10:28:15.925Z,2.55
2022-09-18T10:31:01.725Z,3.67
2022-09-18T10:33:32.731Z,2.45
2022-09-18T10:36:04.502Z,2.90
2022-09-18T10:38:34.193Z,1.95
2022-09-18T10:41:12.899Z,2.38
2022-09-18T10:43:54.540Z,2.67
2022-09-18T10:46:27.061Z,3.25
2022-09-18T10:48:54.966Z,2.78
2022-09-18T10:51:25.611Z,2.67
2022-09-18T10:54:04.555Z,3.75
2022-09-18T10:56:32.758Z,3.65
2022-09-18T10:59:32.142Z,2.00
2022-09-18T11:02:01.295Z,1.73
2022-09-18T11:04:29.842Z,3.05
2022-09-18T11:06:58.984Z,1.77
2022-09-18T11:09:32.352Z,3.67
2022-09-18T11:12:00.185Z,1.87
2022-09-18T11:14:31.316Z,2.65
2022-09-18T11:17:00.910Z,1.95
2022-09-18T11:19:29.852Z,1.70
2022-09-18T11:21:59.794Z,2.70
2022-09-18T11:24:31.121Z,2.28
2022-09-18T11:27:00.173Z,1.70
2022-09-18T11:29:33.553Z,1.77
2022-09-18T11:32:05.326Z,2.47
2022-09-18T11:34:40.552Z,4.00
2022-09-18T11:37:10.550Z,2.50
2022-09-18T11:39:40.809Z,3.38
2022-09-18T11:42:11.001Z,3.25
2022-09-18T11:44:40.521Z,3.13
2022-09-18T11:47:32.281Z,2.72
2022-09-18T11:50:06.521Z,2.88
2022-09-18T11:52:36.937Z,4.03
2022-09-18T11:55:10.497Z,3.00
2022-09-18T11:57:41.783Z,3.60
2022-09-18T12:00:14.941Z,4.25
2022-09-18T12:02:48.189Z,3.15
2022-09-18T12:05:22.141Z,3.15
2022-09-18T12:07:56.296Z,3.15
2022-09-18T12:10:29.653Z,2.42
2022-09-18T12:13:15.036Z,3.50
2022-09-18T12:15:47.982Z,2.17
2022-09-18T12:18:18.750Z,2.33
2022-09-18T12:20:49.718Z,1.52
2022-09-18T12:23:23.857Z,2.15
2022-09-18T12:26:02.139Z,2.10
2022-09-18T12:28:36.889Z,3.97
2022-09-18T12:31:11.591Z,2.85
2022-09-18T12:33:42.443Z,2.95
2022-09-18T12:36:32.169Z,4.20
2022-09-18T12:39:12.791Z,3.53
2022-09-18T12:41:50.471Z,3.42
2022-09-18T12:44:41.353Z,2.33
2022-09-18T12:47:31.227Z,2.55
2022-09-18T12:50:07.861Z,3.80
2022-09-18T12:53:00.537Z,3.33
2022-09-18T12:55:44.217Z,3.70
2022-09-18T12:58:24.990Z,5.72
2022-09-18T13:00:53.700Z,4.15
2022-09-18T13:03:27.011Z,2.50
2022-09-18T13:05:57.149Z,3.38
2022-09-18T13:08:28.272Z,3.53
2022-09-18T13:10:58.554Z,5.43
2022-09-18T13:13:36.674Z,4.30
2022-09-18T13:16:08.028Z,4.63
2022-09-18T13:18:41.033Z,3.72
2022-09-18T13:21:17.638Z,5.22
2022-09-18T13:23:48.488Z,3.17
2022-09-18T13:26:18.774Z,4.00
2022-09-18T13:28:46.693Z,4.03
2022-09-18T13:31:24.384Z,5.03
2022-09-18T13:33:55.975Z,2.75
2022-09-18T13:36:28.398Z,3.00
2022-09-18T13:38:57.154Z,5.22
2022-09-18T13:41:25.397Z,3.13
2022-09-18T13:43:58.217Z,2.58
2022-09-18T13:46:34.590Z,3.53
2022-09-18T13:49:15.583Z,3.43
2022-09-18T13:51:43.705Z,3.30
2022-09-18T13:54:24.136Z,3.88
2022-09-18T13:57:22.416Z,3.40
2022-09-18T13:59:52.950Z,3.33
2022-09-18T14:02:33.969Z,3.92
2022-09-18T14:05:06.572Z,4.75
2022-09-18T14:08:13.995Z,3.15
2022-09-18T14:11:19.562Z,2.83
2022-09-18T14:13:51.624Z,4.35
2022-09-18T14:16:31.248Z,5.63
2022-09-18T14:19:04.041Z,2.70
2022-09-18T14:21:33.987Z,2.08
2022-09-18T14:24:23.134Z,5.15
2022-09-18T14:26:56.846Z,2.92
2022-09-18T14:29:28.171Z,3.10
2022-09-18T14:31:57.422Z,3.30
2022-09-18T14:34:27.069Z,2.92
2022-09-18T14:36:59.201Z,4.70
2022-09-18T14:39:28.636Z,3.08
2022-09-18T14:43:23.052Z,4.38
2022-09-18T14:45:51.386Z,2.50
2022-09-18T14:48:26.921Z,3.30
2022-09-18T14:51:02.959Z,2.95
2022-09-18T14:53:31.292Z,2.53
2022-09-18T14:56:03.584Z,3.13
2022-09-18T14:59:06.625Z,4.10
2022-09-18T15:01:35.678Z,3.20
2022-09-18T15:04:05.473Z,3.22
2022-09-18T15:06:36.759Z,2.75
2022-09-18T15:09:05.779Z,3.33
2022-09-18T15:11:52.278Z,2.78
2022-09-18T15:14:28.782Z,3.83
2022-09-18T15:16:57.575Z,4.00
2022-09-18T15:19:25.479Z,2.40
2022-09-18T15:21:53.771Z,1.98
2022-09-18T15:24:21.525Z,2.60
2022-09-18T15:26:54.331Z,1.80
2022-09-18T15:29:28.604Z,2.30
2022-09-18T15:31:56.671Z,3.05
2022-09-18T15:34:26.279Z,2.85
2022-09-18T15:36:56.915Z,2.65
2022-09-18T15:39:30.010Z,3.85
2022-09-18T15:42:06.337Z,3.97
2022-09-18T15:45:09.564Z,2.83
2022-09-18T15:47:40.437Z,3.13
2022-09-18T15:50:33.704Z,2.67
2022-09-18T15:53:05.913Z,2.67
2022-09-18T15:55:35.729Z,1.63
2022-09-18T15:58:05.224Z,2.53
2022-09-18T16:00:35.298Z,2.22
2022-09-18T16:03:08.015Z,2.15
2022-09-18T16:05:38.005Z,2.13
2022-09-18T16:08:08.714Z,2.57
2022-09-18T16:10:48.885Z,5.53
2022-09-18T16:13:32.110Z,1.95
2022-09-18T16:16:26.031Z,4.35
2022-09-18T16:18:57.071Z,2.20
2022-09-18T16:21:26.729Z,2.03
2022-09-18T16:23:55.628Z,1.33
2022-09-18T16:26:27.846Z,2.55
2022-09-18T16:28:57.184Z,3.05
2022-09-18T16:31:26.837Z,1.75
2022-09-18T16:33:58.096Z,2.22
2022-09-18T16:36:28.826Z,1.50
2022-09-18T16:38:56.891Z,2.37
2022-09-18T16:41:25.120Z,1.95
2022-09-18T16:43:53.855Z,1.80
2022-09-18T16:46:23.785Z,2.67
2022-09-18T16:48:51.949Z,3.03
2022-09-18T16:51:21.931Z,5.13
2022-09-18T16:53:49.706Z,3.92
2022-09-18T16:56:19.113Z,3.72
2022-09-18T16:58:46.755Z,3.27
2022-09-18T17:01:15.535Z,1.40
2022-09-18T17:03:43.218Z,1.75
2022-09-18T17:06:10.843Z,1.92
2022-09-18T17:08:42.116Z,1.80
2022-09-18T17:13:18.821Z,3.92
2022-09-18T17:15:46.424Z,3.15
2022-09-18T17:18:14.550Z,6.07
2022-09-18T17:20:42.314Z,2.55
2022-09-18T17:23:09.957Z,2.03
2022-09-18T17:25:37.597Z,2.43
2022-09-18T17:28:05.193Z,3.03
2022-09-18T17:30:34.271Z,1.88
2022-09-18T17:33:02.679Z,3.30
2022-09-18T17:35:30.244Z,3.05
2022-09-18T17:37:57.877Z,2.33
2022-09-18T17:40:25.545Z,2.73
2022-09-18T17:42:53.840Z,3.65
2022-09-18T17:45:21.433Z,2.80
2022-09-18T17:47:53.052Z,3.42
2022-09-18T17:50:21.369Z,2.92
2022-09-18T17:52:49.090Z,4.88
2022-09-18T17:55:16.805Z,6.60
2022-09-18T17:57:44.784Z,4.87
2022-09-18T18:00:12.766Z,3.33
2022-09-18T18:02:40.459Z,3.90
2022-09-18T18:05:09.949Z,4.03
2022-09-18T18:07:37.589Z,4.72
2022-09-18T18:10:05.702Z,7.03
2022-09-18T18:12:33.312Z,6.65
2022-09-18T18:15:00.910Z,6.53
2022-09-18T18:17:29.677Z,5.28
2022-09-18T18:19:57.322Z,8.05
2022-09-18T18:22:26.354Z,5.47
2022-09-18T18:24:53.950Z,6.32
2022-09-18T18:27:22.326Z,7.75
2022-09-18T18:29:52.429Z,4.85
2022-09-18T18:32:20.153Z,5.13
2022-09-18T18:34:49.523Z,5.30
2022-09-18T18:37:17.218Z,3.60
2022-09-18T18:39:46.909Z,6.90
2022-09-18T18:42:14.582Z,7.35
2022-09-18T18:44:42.335Z,10.95
2022-09-18T18:47:10.078Z,6.70
2022-09-18T18:49:37.809Z,4.72
2022-09-18T18:52:05.456Z,4.72
2022-09-18T18:54:33.052Z,6.50
2022-09-18T18:57:02.008Z,9.40
2022-09-18T18:59:29.857Z,5.27
2022-09-18T19:01:57.802Z,8.23
2022-09-18T19:04:26.120Z,7.70
2022-09-18T19:06:54.118Z,7.22
2022-09-18T19:09:24.335Z,8.43
2022-09-18T19:11:53.344Z,6.80
2022-09-18T19:14:24.189Z,6.43
2022-09-18T19:16:52.756Z,4.30
2022-09-18T19:19:21.760Z,3.45
2022-09-18T19:21:49.345Z,6.13
2022-09-18T19:24:18.512Z,9.85
2022-09-18T19:26:47.210Z,4.80
2022-09-18T19:29:15.939Z,5.45
2022-09-18T19:31:46.001Z,5.68
2022-09-18T19:34:15.534Z,9.55
2022-09-18T19:36:49.973Z,8.20
2022-09-18T19:39:18.433Z,9.10
2022-09-18T19:41:48.609Z,7.25
2022-09-18T19:44:19.246Z,7.93
2022-09-18T19:46:48.328Z,8.15
2022-09-18T19:49:18.289Z,10.80
2022-09-18T19:51:46.229Z,11.02
2022-09-18T19:54:14.593Z,11.32
2022-09-18T19:56:46.622Z,14.10
2022-09-18T19:59:14.375Z,11.18
2022-09-18T20:01:42.008Z,8.45
2022-09-18T20:04:11.004Z,11.60
2022-09-18T20:06:40.389Z,8.95
2022-09-18T20:09:08.113Z,11.80
2022-09-18T20:11:36.178Z,8.48
2022-09-18T20:14:04.042Z,7.82
2022-09-18T20:16:31.894Z,7.50
2022-09-18T20:18:59.748Z,8.45
2022-09-18T20:21:29.701Z,9.77
2022-09-18T20:23:59.258Z,8.50
2022-09-18T20:26:28.745Z,8.80
2022-09-18T20:28:56.360Z,7.27
2022-09-18T20:31:24.577Z,8.40
2022-09-18T20:33:55.336Z,8.93
2022-09-18T20:36:23.162Z,7.60
2022-09-18T20:38:54.062Z,9.60
2022-09-18T20:41:22.089Z,8.05
2022-09-18T20:43:53.896Z,9.70
2022-09-18T20:46:21.928Z,7.47
2022-09-18T20:48:54.966Z,10.98
2022-09-18T20:51:24.492Z,8.70
2022-09-18T20:53:57.161Z,9.50
2022-09-18T20:56:26.252Z,10.23
2022-09-18T20:58:54.616Z,9.43
2022-09-18T21:01:24.876Z,7.97
2022-09-18T21:03:56.521Z,10.27
2022-09-18T21:06:25.448Z,10.65
2022-09-18T21:08:55.598Z,11.27
2022-09-18T21:11:24.720Z,8.90
2022-09-18T21:13:54.034Z,8.73
2022-09-18T21:16:22.190Z,10.48
2022-09-18T21:18:51.121Z,9.10
2022-09-18T21:21:19.158Z,9.13
2022-09-18T21:23:58.714Z,10.05
2022-09-18T21:26:30.579Z,9.85
2022-09-18T21:29:00.295Z,10.48
2022-09-18T21:31:28.635Z,10.30
2022-09-18T21:33:59.146Z,8.48
2022-09-18T21:36:27.673Z,11.23
2022-09-18T21:38:55.996Z,11.82
2022-09-18T21:41:25.036Z,10.65
2022-09-18T21:43:57.382Z,10.65
2022-09-18T21:46:25.343Z,10.68
2022-09-18T21:48:56.718Z,12.73
2022-09-18T21:51:24.359Z,12.63
2022-09-18T21:53:51.926Z,9.98
2022-09-18T21:56:20.879Z,10.38
2022-09-18T21:58:48.921Z,10.95
2022-09-18T22:01:19.134Z,13.15
2022-09-18T22:03:52.188Z,11.98
2022-09-18T22:06:20.365Z,13.20
2022-09-18T22:08:50.876Z,10.32
2022-09-18T22:11:19.688Z,11.75
2022-09-18T22:13:47.468Z,14.82
2022-09-18T22:16:15.414Z,10.80
2022-09-18T22:18:45.253Z,11.87
2022-09-18T22:21:20.215Z,10.60
2022-09-18T22:23:52.503Z,9.63
2022-09-18T22:26:20.574Z,13.65
2022-09-18T22:28:50.409Z,11.40
2022-09-18T22:31:19.261Z,13.82
2022-09-18T22:33:49.210Z,12.33
2022-09-18T22:36:16.809Z,14.25
2022-09-18T22:38:44.413Z,12.52
2022-09-18T22:41:12.041Z,10.27
2022-09-18T22:43:39.679Z,13.02
2022-09-18T22:46:08.810Z,9.73
2022-09-18T22:48:36.938Z,11.60
2022-09-18T22:51:07.975Z,11.85
2022-09-18T22:53:36.193Z,10.85
2022-09-18T22:56:05.181Z,10.45
2022-09-18T22:58:32.813Z,10.50
2022-09-18T23:01:06.994Z,12.75
2022-09-18T23:03:34.757Z,9.38
2022-09-18T23:06:02.562Z,9.80
2022-09-18T23:08:32.226Z,10.95
2022-09-18T23:11:02.961Z,8.35
2022-09-18T23:13:32.035Z,10.30
2022-09-18T23:16:03.415Z,11.85
2022-09-18T23:18:31.113Z,8.50
2022-09-18T23:21:03.471Z,10.80
2022-09-18T23:23:34.190Z,9.02
2022-09-18T23:26:08.387Z,10.27
2022-09-18T23:28:37.111Z,9.48
2022-09-18T23:31:06.799Z,11.57
2022-09-18T23:33:35.198Z,8.88
2022-09-18T23:36:07.747Z,11.25
2022-09-18T23:38:36.863Z,12.20
2022-09-18T23:41:06.377Z,12.10
2022-09-18T23:43:34.335Z,12.65
2022-09-18T23:46:02.077Z,13.85
2022-09-18T23:48:30.274Z,9.02
2022-09-18T23:51:00.261Z,9.45
2022-09-18T23:53:28.474Z,10.93
2022-09-18T23:56:03.995Z,9.85
2022-09-18T23:58:31.628Z,11.77
